sensor_id;sensor_type;location;lat;lon;timestamp;temperature;humidity
74946;HTU21D;63509;45.250;38.102;2023-06-10T00:01:32;21.46;51.44
74946;HTU21D;63509;45.250;38.102;2023-06-10T00:04:02;21.44;51.50
74946;HTU21D;63509;45.250;38.102;2023-06-10T00:06:28;21.45;51.51
74946;HTU21D;63509;45.250;38.102;2023-06-10T00:09:05;21.44;51.44
74946;HTU21D;63509;45.250;38.102;2023-06-10T00:11:32;21.43;51.59
74946;HTU21D;63509;45.250;38.102;2023-06-10T00:13:58;21.42;51.59
74946;HTU21D;63509;45.250;38.102;2023-06-10T00:16:25;21.39;51.64
74946;HTU21D;63509;45.250;38.102;2023-06-10T00:18:51;21.39;51.67
74946;HTU21D;63509;45.250;38.102;2023-06-10T00:21:17;21.37;51.68
74946;HTU21D;63509;45.250;38.102;2023-06-10T00:23:44;21.36;51.71
74946;HTU21D;63509;45.250;38.102;2023-06-10T00:26:11;21.35;51.77
74946;HTU21D;63509;45.250;38.102;2023-06-10T00:28:36;21.33;51.77
74946;HTU21D;63509;45.250;38.102;2023-06-10T00:31:03;21.31;51.79
74946;HTU21D;63509;45.250;38.102;2023-06-10T00:33:31;21.30;51.82
74946;HTU21D;63509;45.250;38.102;2023-06-10T00:35:57;21.30;51.87
74946;HTU21D;63509;45.250;38.102;2023-06-10T00:38:23;21.29;51.87
74946;HTU21D;63509;45.250;38.102;2023-06-10T00:40:49;21.27;51.87
74946;HTU21D;63509;45.250;38.102;2023-06-10T00:43:17;21.25;51.94
74946;HTU21D;63509;45.250;38.102;2023-06-10T00:45:43;21.24;51.97
74946;HTU21D;63509;45.250;38.102;2023-06-10T00:48:09;21.23;51.96
74946;HTU21D;63509;45.250;38.102;2023-06-10T00:50:35;21.22;51.98
74946;HTU21D;63509;45.250;38.102;2023-06-10T00:53:05;21.21;52.01
74946;HTU21D;63509;45.250;38.102;2023-06-10T00:55:32;21.19;52.07
74946;HTU21D;63509;45.250;38.102;2023-06-10T00:57:58;21.18;52.06
74946;HTU21D;63509;45.250;38.102;2023-06-10T01:00:25;21.16;52.14
74946;HTU21D;63509;45.250;38.102;2023-06-10T01:02:51;21.15;52.14
74946;HTU21D;63509;45.250;38.102;2023-06-10T01:05:21;21.13;52.14
74946;HTU21D;63509;45.250;38.102;2023-06-10T01:08:01;21.10;52.06
74946;HTU21D;63509;45.250;38.102;2023-06-10T01:10:38;21.08;52.04
74946;HTU21D;63509;45.250;38.102;2023-06-10T01:13:07;21.08;52.21
74946;HTU21D;63509;45.250;38.102;2023-06-10T01:15:37;21.05;52.28
74946;HTU21D;63509;45.250;38.102;2023-06-10T01:18:09;21.04;52.25
74946;HTU21D;63509;45.250;38.102;2023-06-10T01:20:36;21.03;52.35
74946;HTU21D;63509;45.250;38.102;2023-06-10T01:23:06;21.02;52.39
74946;HTU21D;63509;45.250;38.102;2023-06-10T01:25:32;21.01;52.42
74946;HTU21D;63509;45.250;38.102;2023-06-10T01:28:19;21.00;52.27
74946;HTU21D;63509;45.250;38.102;2023-06-10T01:31:18;21.00;52.26
74946;HTU21D;63509;45.250;38.102;2023-06-10T01:33:49;20.98;52.44
74946;HTU21D;63509;45.250;38.102;2023-06-10T01:36:18;20.95;52.52
74946;HTU21D;63509;45.250;38.102;2023-06-10T01:38:46;20.95;52.56
74946;HTU21D;63509;45.250;38.102;2023-06-10T01:41:16;20.95;52.62
74946;HTU21D;63509;45.250;38.102;2023-06-10T01:43:44;20.94;52.60
74946;HTU21D;63509;45.250;38.102;2023-06-10T01:46:11;20.93;52.64
74946;HTU21D;63509;45.250;38.102;2023-06-10T01:48:37;20.92;52.72
74946;HTU21D;63509;45.250;38.102;2023-06-10T01:51:04;20.93;52.71
74946;HTU21D;63509;45.250;38.102;2023-06-10T01:53:30;20.92;52.75
74946;HTU21D;63509;45.250;38.102;2023-06-10T01:55:56;20.92;52.80
74946;HTU21D;63509;45.250;38.102;2023-06-10T01:58:23;20.93;52.83
74946;HTU21D;63509;45.250;38.102;2023-06-10T02:00:49;20.92;52.91
74946;HTU21D;63509;45.250;38.102;2023-06-10T02:03:15;20.92;52.91
74946;HTU21D;63509;45.250;38.102;2023-06-10T02:05:41;20.93;52.94
74946;HTU21D;63509;45.250;38.102;2023-06-10T02:08:08;20.94;52.95
74946;HTU21D;63509;45.250;38.102;2023-06-10T02:10:34;20.94;53.01
74946;HTU21D;63509;45.250;38.102;2023-06-10T02:13:00;20.95;53.04
74946;HTU21D;63509;45.250;38.102;2023-06-10T02:15:26;20.96;53.08
74946;HTU21D;63509;45.250;38.102;2023-06-10T02:17:52;20.95;53.11
74946;HTU21D;63509;45.250;38.102;2023-06-10T02:20:20;20.95;53.11
74946;HTU21D;63509;45.250;38.102;2023-06-10T02:22:46;20.96;53.16
74946;HTU21D;63509;45.250;38.102;2023-06-10T02:25:13;20.96;53.16
74946;HTU21D;63509;45.250;38.102;2023-06-10T02:27:41;20.98;53.20
74946;HTU21D;63509;45.250;38.102;2023-06-10T02:30:08;20.99;53.27
74946;HTU21D;63509;45.250;38.102;2023-06-10T02:32:36;20.98;52.91
74946;HTU21D;63509;45.250;38.102;2023-06-10T02:35:02;20.93;53.13
74946;HTU21D;63509;45.250;38.102;2023-06-10T02:37:29;20.93;53.28
74946;HTU21D;63509;45.250;38.102;2023-06-10T02:39:57;20.93;53.31
74946;HTU21D;63509;45.250;38.102;2023-06-10T02:42:24;20.94;53.37
74946;HTU21D;63509;45.250;38.102;2023-06-10T02:44:51;20.94;53.39
74946;HTU21D;63509;45.250;38.102;2023-06-10T02:47:27;20.95;53.46
74946;HTU21D;63509;45.250;38.102;2023-06-10T02:49:53;20.96;53.44
74946;HTU21D;63509;45.250;38.102;2023-06-10T02:52:19;20.98;53.52
74946;HTU21D;63509;45.250;38.102;2023-06-10T02:54:47;21.00;53.56
74946;HTU21D;63509;45.250;38.102;2023-06-10T02:57:13;21.02;53.56
74946;HTU21D;63509;45.250;38.102;2023-06-10T02:59:40;21.03;53.59
74946;HTU21D;63509;45.250;38.102;2023-06-10T03:02:07;21.05;53.61
74946;HTU21D;63509;45.250;38.102;2023-06-10T03:04:40;21.07;53.64
74946;HTU21D;63509;45.250;38.102;2023-06-10T03:07:12;21.08;53.64
74946;HTU21D;63509;45.250;38.102;2023-06-10T03:09:39;21.09;53.67
74946;HTU21D;63509;45.250;38.102;2023-06-10T03:12:09;21.10;53.67
74946;HTU21D;63509;45.250;38.102;2023-06-10T03:14:41;21.10;53.70
74946;HTU21D;63509;45.250;38.102;2023-06-10T03:17:07;21.11;53.70
74946;HTU21D;63509;45.250;38.102;2023-06-10T03:19:39;21.11;53.75
74946;HTU21D;63509;45.250;38.102;2023-06-10T03:22:10;21.13;53.63
74946;HTU21D;63509;45.250;38.102;2023-06-10T03:24:41;21.11;53.79
74946;HTU21D;63509;45.250;38.102;2023-06-10T03:27:12;21.13;53.65
74946;HTU21D;63509;45.250;38.102;2023-06-10T03:29:42;21.13;53.83
74946;HTU21D;63509;45.250;38.102;2023-06-10T03:32:09;21.14;53.84
74946;HTU21D;63509;45.250;38.102;2023-06-10T03:34:37;21.14;53.85
74946;HTU21D;63509;45.250;38.102;2023-06-10T03:37:04;21.15;53.87
74946;HTU21D;63509;45.250;38.102;2023-06-10T03:39:32;21.16;53.90
74946;HTU21D;63509;45.250;38.102;2023-06-10T03:41:59;21.16;53.93
74946;HTU21D;63509;45.250;38.102;2023-06-10T03:44:27;21.17;53.96
74946;HTU21D;63509;45.250;38.102;2023-06-10T03:46:54;21.18;53.98
74946;HTU21D;63509;45.250;38.102;2023-06-10T03:49:21;21.19;53.97
74946;HTU21D;63509;45.250;38.102;2023-06-10T03:51:55;21.19;53.99
74946;HTU21D;63509;45.250;38.102;2023-06-10T03:54:21;21.22;54.05
74946;HTU21D;63509;45.250;38.102;2023-06-10T03:56:48;21.24;54.11
74946;HTU21D;63509;45.250;38.102;2023-06-10T03:59:15;21.27;54.09
74946;HTU21D;63509;45.250;38.102;2023-06-10T04:01:42;21.29;53.78
74946;HTU21D;63509;45.250;38.102;2023-06-10T04:04:12;21.31;54.01
74946;HTU21D;63509;45.250;38.102;2023-06-10T04:06:38;21.34;54.08
74946;HTU21D;63509;45.250;38.102;2023-06-10T04:09:04;21.40;54.19
74946;HTU21D;63509;45.250;38.102;2023-06-10T04:11:30;21.46;54.25
74946;HTU21D;63509;45.250;38.102;2023-06-10T04:13:58;21.51;54.33
74946;HTU21D;63509;45.250;38.102;2023-06-10T04:16:26;21.59;54.31
74946;HTU21D;63509;45.250;38.102;2023-06-10T04:18:53;21.64;54.37
74946;HTU21D;63509;45.250;38.102;2023-06-10T04:21:23;21.72;54.42
74946;HTU21D;63509;45.250;38.102;2023-06-10T04:23:51;21.79;54.47
74946;HTU21D;63509;45.250;38.102;2023-06-10T04:26:17;21.87;54.51
74946;HTU21D;63509;45.250;38.102;2023-06-10T04:28:43;21.93;54.46
74946;HTU21D;63509;45.250;38.102;2023-06-10T04:31:10;22.02;54.45
74946;HTU21D;63509;45.250;38.102;2023-06-10T04:33:37;22.09;54.46
74946;HTU21D;63509;45.250;38.102;2023-06-10T04:36:04;22.16;54.43
74946;HTU21D;63509;45.250;38.102;2023-06-10T04:38:33;22.21;54.36
74946;HTU21D;63509;45.250;38.102;2023-06-10T04:41:00;22.27;54.33
74946;HTU21D;63509;45.250;38.102;2023-06-10T04:43:29;22.33;54.41
74946;HTU21D;63509;45.250;38.102;2023-06-10T04:45:58;22.39;54.42
74946;HTU21D;63509;45.250;38.102;2023-06-10T04:48:25;22.43;54.36
74946;HTU21D;63509;45.250;38.102;2023-06-10T04:50:53;22.49;54.30
74946;HTU21D;63509;45.250;38.102;2023-06-10T04:53:19;22.55;54.37
74946;HTU21D;63509;45.250;38.102;2023-06-10T04:55:46;22.58;54.30
74946;HTU21D;63509;45.250;38.102;2023-06-10T04:58:14;22.65;54.30
74946;HTU21D;63509;45.250;38.102;2023-06-10T05:00:40;22.70;54.34
74946;HTU21D;63509;45.250;38.102;2023-06-10T05:03:06;22.73;54.33
74946;HTU21D;63509;45.250;38.102;2023-06-10T05:05:33;22.80;54.33
74946;HTU21D;63509;45.250;38.102;2023-06-10T05:07:59;22.84;54.35
74946;HTU21D;63509;45.250;38.102;2023-06-10T05:10:25;22.87;54.33
74946;HTU21D;63509;45.250;38.102;2023-06-10T05:12:51;22.90;54.29
74946;HTU21D;63509;45.250;38.102;2023-06-10T05:15:18;22.93;54.30
74946;HTU21D;63509;45.250;38.102;2023-06-10T05:17:44;22.98;54.27
74946;HTU21D;63509;45.250;38.102;2023-06-10T05:20:11;23.03;54.29
74946;HTU21D;63509;45.250;38.102;2023-06-10T05:22:41;23.06;54.27
74946;HTU21D;63509;45.250;38.102;2023-06-10T05:25:07;23.11;54.28
74946;HTU21D;63509;45.250;38.102;2023-06-10T05:27:34;23.16;54.20
74946;HTU21D;63509;45.250;38.102;2023-06-10T05:30:00;23.23;54.20
74946;HTU21D;63509;45.250;38.102;2023-06-10T05:32:26;23.31;54.23
74946;HTU21D;63509;45.250;38.102;2023-06-10T05:34:52;23.41;54.23
74946;HTU21D;63509;45.250;38.102;2023-06-10T05:37:19;23.52;54.22
74946;HTU21D;63509;45.250;38.102;2023-06-10T05:39:45;23.66;54.23
74946;HTU21D;63509;45.250;38.102;2023-06-10T05:42:11;23.82;54.24
74946;HTU21D;63509;45.250;38.102;2023-06-10T05:44:38;24.04;54.23
74946;HTU21D;63509;45.250;38.102;2023-06-10T05:47:04;24.33;54.30
74946;HTU21D;63509;45.250;38.102;2023-06-10T05:49:31;24.70;54.15
74946;HTU21D;63509;45.250;38.102;2023-06-10T05:51:57;25.05;53.94
74946;HTU21D;63509;45.250;38.102;2023-06-10T05:54:25;25.44;53.62
74946;HTU21D;63509;45.250;38.102;2023-06-10T05:56:52;25.78;53.14
74946;HTU21D;63509;45.250;38.102;2023-06-10T05:59:18;26.06;52.73
74946;HTU21D;63509;45.250;38.102;2023-06-10T06:01:44;26.27;52.40
74946;HTU21D;63509;45.250;38.102;2023-06-10T06:04:10;26.48;52.22
74946;HTU21D;63509;45.250;38.102;2023-06-10T06:06:41;26.68;52.04
74946;HTU21D;63509;45.250;38.102;2023-06-10T06:09:30;26.83;51.95
74946;HTU21D;63509;45.250;38.102;2023-06-10T06:11:56;26.94;51.75
74946;HTU21D;63509;45.250;38.102;2023-06-10T06:14:26;27.01;51.53
74946;HTU21D;63509;45.250;38.102;2023-06-10T06:17:09;27.13;51.47
74946;HTU21D;63509;45.250;38.102;2023-06-10T06:19:35;27.28;51.34
74946;HTU21D;63509;45.250;38.102;2023-06-10T06:22:04;27.46;51.23
74946;HTU21D;63509;45.250;38.102;2023-06-10T06:24:31;27.65;51.00
74946;HTU21D;63509;45.250;38.102;2023-06-10T06:27:07;27.83;50.78
74946;HTU21D;63509;45.250;38.102;2023-06-10T06:29:43;27.95;50.61
74946;HTU21D;63509;45.250;38.102;2023-06-10T06:32:35;28.09;50.38
74946;HTU21D;63509;45.250;38.102;2023-06-10T06:35:18;28.21;50.30
74946;HTU21D;63509;45.250;38.102;2023-06-10T06:37:44;28.27;50.35
74946;HTU21D;63509;45.250;38.102;2023-06-10T06:40:22;28.29;50.34
74946;HTU21D;63509;45.250;38.102;2023-06-10T06:42:54;28.49;50.18
74946;HTU21D;63509;45.250;38.102;2023-06-10T06:45:45;28.74;49.94
74946;HTU21D;63509;45.250;38.102;2023-06-10T06:48:13;28.89;49.78
74946;HTU21D;63509;45.250;38.102;2023-06-10T06:50:40;29.14;49.66
74946;HTU21D;63509;45.250;38.102;2023-06-10T06:53:24;29.42;49.39
74946;HTU21D;63509;45.250;38.102;2023-06-10T06:55:51;29.63;49.17
74946;HTU21D;63509;45.250;38.102;2023-06-10T06:58:17;29.85;48.77
74946;HTU21D;63509;45.250;38.102;2023-06-10T07:00:44;30.01;48.54
74946;HTU21D;63509;45.250;38.102;2023-06-10T07:03:10;30.15;48.35
74946;HTU21D;63509;45.250;38.102;2023-06-10T07:05:36;30.34;48.23
74946;HTU21D;63509;45.250;38.102;2023-06-10T07:08:02;30.49;47.89
74946;HTU21D;63509;45.250;38.102;2023-06-10T07:10:28;30.61;47.79
74946;HTU21D;63509;45.250;38.102;2023-06-10T07:12:55;30.76;47.67
74946;HTU21D;63509;45.250;38.102;2023-06-10T07:15:21;30.87;47.51
74946;HTU21D;63509;45.250;38.102;2023-06-10T07:17:47;31.07;47.42
74946;HTU21D;63509;45.250;38.102;2023-06-10T07:20:14;31.31;47.08
74946;HTU21D;63509;45.250;38.102;2023-06-10T07:22:41;31.50;46.90
74946;HTU21D;63509;45.250;38.102;2023-06-10T07:25:08;31.68;46.73
74946;HTU21D;63509;45.250;38.102;2023-06-10T07:27:34;31.92;46.42
74946;HTU21D;63509;45.250;38.102;2023-06-10T07:30:04;32.10;46.20
74946;HTU21D;63509;45.250;38.102;2023-06-10T07:32:32;32.30;45.96
74946;HTU21D;63509;45.250;38.102;2023-06-10T07:34:58;32.43;45.51
74946;HTU21D;63509;45.250;38.102;2023-06-10T07:37:24;32.41;45.25
74946;HTU21D;63509;45.250;38.102;2023-06-10T07:39:50;32.32;45.04
74946;HTU21D;63509;45.250;38.102;2023-06-10T07:42:16;32.18;45.09
74946;HTU21D;63509;45.250;38.102;2023-06-10T07:44:42;32.05;45.06
74946;HTU21D;63509;45.250;38.102;2023-06-10T07:47:08;31.92;45.10
74946;HTU21D;63509;45.250;38.102;2023-06-10T07:49:34;31.84;45.04
74946;HTU21D;63509;45.250;38.102;2023-06-10T07:52:00;31.73;45.06
74946;HTU21D;63509;45.250;38.102;2023-06-10T07:54:26;31.69;45.10
74946;HTU21D;63509;45.250;38.102;2023-06-10T07:56:52;31.71;45.10
74946;HTU21D;63509;45.250;38.102;2023-06-10T07:59:19;31.84;45.09
74946;HTU21D;63509;45.250;38.102;2023-06-10T08:01:45;32.01;44.90
74946;HTU21D;63509;45.250;38.102;2023-06-10T08:04:11;32.08;44.74
74946;HTU21D;63509;45.250;38.102;2023-06-10T08:06:37;32.16;44.72
74946;HTU21D;63509;45.250;38.102;2023-06-10T08:09:03;32.29;44.54
74946;HTU21D;63509;45.250;38.102;2023-06-10T08:11:30;32.37;44.48
74946;HTU21D;63509;45.250;38.102;2023-06-10T08:13:56;32.56;44.31
74946;HTU21D;63509;45.250;38.102;2023-06-10T08:16:22;32.72;44.13
74946;HTU21D;63509;45.250;38.102;2023-06-10T08:18:48;32.85;44.08
74946;HTU21D;63509;45.250;38.102;2023-06-10T08:21:15;32.97;44.53
74946;HTU21D;63509;45.250;38.102;2023-06-10T08:23:42;33.18;44.18
74946;HTU21D;63509;45.250;38.102;2023-06-10T08:26:07;33.49;43.71
74946;HTU21D;63509;45.250;38.102;2023-06-10T08:28:34;33.75;43.34
74946;HTU21D;63509;45.250;38.102;2023-06-10T08:31:00;33.94;43.02
74946;HTU21D;63509;45.250;38.102;2023-06-10T08:33:26;34.07;42.74
74946;HTU21D;63509;45.250;38.102;2023-06-10T08:35:52;34.19;42.55
74946;HTU21D;63509;45.250;38.102;2023-06-10T08:38:18;34.24;42.35
74946;HTU21D;63509;45.250;38.102;2023-06-10T08:40:50;34.34;42.35
74946;HTU21D;63509;45.250;38.102;2023-06-10T08:43:44;34.56;42.27
74946;HTU21D;63509;45.250;38.102;2023-06-10T08:46:19;34.77;42.10
74946;HTU21D;63509;45.250;38.102;2023-06-10T08:48:48;34.83;41.74
74946;HTU21D;63509;45.250;38.102;2023-06-10T08:51:18;34.76;41.41
74946;HTU21D;63509;45.250;38.102;2023-06-10T08:53:53;34.65;41.59
74946;HTU21D;63509;45.250;38.102;2023-06-10T08:56:25;34.57;41.65
74946;HTU21D;63509;45.250;38.102;2023-06-10T08:58:52;34.57;41.57
74946;HTU21D;63509;45.250;38.102;2023-06-10T09:01:19;34.65;41.50
74946;HTU21D;63509;45.250;38.102;2023-06-10T09:03:45;34.81;41.38
74946;HTU21D;63509;45.250;38.102;2023-06-10T09:06:12;34.96;41.21
74946;HTU21D;63509;45.250;38.102;2023-06-10T09:08:39;35.13;40.99
74946;HTU21D;63509;45.250;38.102;2023-06-10T09:11:06;35.22;40.73
74946;HTU21D;63509;45.250;38.102;2023-06-10T09:13:32;35.25;40.59
74946;HTU21D;63509;45.250;38.102;2023-06-10T09:15:58;35.20;40.47
74946;HTU21D;63509;45.250;38.102;2023-06-10T09:18:28;35.20;40.60
74946;HTU21D;63509;45.250;38.102;2023-06-10T09:20:54;35.27;40.40
74946;HTU21D;63509;45.250;38.102;2023-06-10T09:23:21;0.00;40.23
74946;HTU21D;63509;45.250;38.102;2023-06-10T09:26:00;35.36;40.30
74946;HTU21D;63509;45.250;38.102;2023-06-10T09:28:49;35.01;0.00
74946;HTU21D;63509;45.250;38.102;2023-06-10T09:31:21;35.06;40.81
74946;HTU21D;63509;45.250;38.102;2023-06-10T09:33:48;0.00;0.00
74946;HTU21D;63509;45.250;38.102;2023-06-10T09:36:23;34.80;40.30
74946;HTU21D;63509;45.250;38.102;2023-06-10T09:38:50;34.49;40.16
74946;HTU21D;63509;45.250;38.102;2023-06-10T09:41:19;34.23;39.89
74946;HTU21D;63509;45.250;38.102;2023-06-10T09:43:46;33.96;40.32
74946;HTU21D;63509;45.250;38.102;2023-06-10T09:49:02;0.00;40.65
74946;HTU21D;63509;45.250;38.102;2023-06-10T09:51:52;33.14;40.82
74946;HTU21D;63509;45.250;38.102;2023-06-10T09:54:22;32.74;41.00
74946;HTU21D;63509;45.250;38.102;2023-06-10T09:56:49;32.35;41.30
74946;HTU21D;63509;45.250;38.102;2023-06-10T09:59:30;0.00;0.00
74946;HTU21D;63509;45.250;38.102;2023-06-10T10:01:57;31.67;41.87
74946;HTU21D;63509;45.250;38.102;2023-06-10T10:04:26;0.00;42.06
74946;HTU21D;63509;45.250;38.102;2023-06-10T10:06:54;31.07;42.27
74946;HTU21D;63509;45.250;38.102;2023-06-10T10:09:48;30.84;42.44
74946;HTU21D;63509;45.250;38.102;2023-06-10T10:19:57;29.98;43.10
74946;HTU21D;63509;45.250;38.102;2023-06-10T10:22:26;29.71;43.31
74946;HTU21D;63509;45.250;38.102;2023-06-10T10:24:56;29.54;43.46
74946;HTU21D;63509;45.250;38.102;2023-06-10T10:27:31;29.37;43.61
74946;HTU21D;63509;45.250;38.102;2023-06-10T10:30:01;29.21;43.84
74946;HTU21D;63509;45.250;38.102;2023-06-10T10:32:36;29.06;43.91
74946;HTU21D;63509;45.250;38.102;2023-06-10T10:35:08;28.84;44.19
74946;HTU21D;63509;45.250;38.102;2023-06-10T10:37:39;28.67;44.44
74946;HTU21D;63509;45.250;38.102;2023-06-10T10:40:06;28.52;44.62
74946;HTU21D;63509;45.250;38.102;2023-06-10T10:42:33;28.39;44.76
74946;HTU21D;63509;45.250;38.102;2023-06-10T10:45:00;28.27;44.91
74946;HTU21D;63509;45.250;38.102;2023-06-10T10:47:28;28.15;45.05
74946;HTU21D;63509;45.250;38.102;2023-06-10T10:49:55;28.03;45.13
74946;HTU21D;63509;45.250;38.102;2023-06-10T10:52:27;27.93;45.25
74946;HTU21D;63509;45.250;38.102;2023-06-10T10:54:53;27.83;45.38
74946;HTU21D;63509;45.250;38.102;2023-06-10T10:57:22;27.75;45.42
74946;HTU21D;63509;45.250;38.102;2023-06-10T11:02:37;27.52;45.49
74946;HTU21D;63509;45.250;38.102;2023-06-10T11:05:09;27.34;45.80
74946;HTU21D;63509;45.250;38.102;2023-06-10T11:07:36;27.21;46.01
74946;HTU21D;63509;45.250;38.102;2023-06-10T11:10:09;27.09;46.06
74946;HTU21D;63509;45.250;38.102;2023-06-10T11:15:29;26.87;46.21
74946;HTU21D;63509;45.250;38.102;2023-06-10T11:18:09;26.79;46.33
74946;HTU21D;63509;45.250;38.102;2023-06-10T11:31:19;26.54;46.67
74946;HTU21D;63509;45.250;38.102;2023-06-10T11:33:53;26.49;46.80
74946;HTU21D;63509;45.250;38.102;2023-06-10T11:36:21;26.45;46.93
74946;HTU21D;63509;45.250;38.102;2023-06-10T11:38:47;26.42;46.97
74946;HTU21D;63509;45.250;38.102;2023-06-10T11:41:14;26.38;47.02
74946;HTU21D;63509;45.250;38.102;2023-06-10T11:43:44;26.35;46.99
74946;HTU21D;63509;45.250;38.102;2023-06-10T11:46:14;26.33;47.03
74946;HTU21D;63509;45.250;38.102;2023-06-10T11:48:52;26.30;47.04
74946;HTU21D;63509;45.250;38.102;2023-06-10T11:51:18;26.26;47.25
74946;HTU21D;63509;45.250;38.102;2023-06-10T11:53:46;26.22;47.35
74946;HTU21D;63509;45.250;38.102;2023-06-10T11:56:12;26.19;47.44
74946;HTU21D;63509;45.250;38.102;2023-06-10T11:58:43;26.16;47.44
74946;HTU21D;63509;45.250;38.102;2023-06-10T12:01:09;26.11;47.60
74946;HTU21D;63509;45.250;38.102;2023-06-10T12:03:36;26.10;47.66
74946;HTU21D;63509;45.250;38.102;2023-06-10T12:06:06;26.07;47.78
74946;HTU21D;63509;45.250;38.102;2023-06-10T12:08:33;26.04;47.86
74946;HTU21D;63509;45.250;38.102;2023-06-10T12:10:59;25.99;47.96
74946;HTU21D;63509;45.250;38.102;2023-06-10T12:13:27;25.97;47.98
74946;HTU21D;63509;45.250;38.102;2023-06-10T12:15:53;25.95;48.10
74946;HTU21D;63509;45.250;38.102;2023-06-10T12:18:21;25.91;48.12
74946;HTU21D;63509;45.250;38.102;2023-06-10T12:20:48;25.90;48.19
74946;HTU21D;63509;45.250;38.102;2023-06-10T12:23:15;25.87;47.89
74946;HTU21D;63509;45.250;38.102;2023-06-10T12:25:53;25.83;48.01
74946;HTU21D;63509;45.250;38.102;2023-06-10T12:28:23;25.79;48.16
74946;HTU21D;63509;45.250;38.102;2023-06-10T12:30:50;25.77;48.41
74946;HTU21D;63509;45.250;38.102;2023-06-10T12:33:17;25.75;48.53
74946;HTU21D;63509;45.250;38.102;2023-06-10T12:35:51;25.74;48.34
74946;HTU21D;63509;45.250;38.102;2023-06-10T12:38:22;25.72;48.44
74946;HTU21D;63509;45.250;38.102;2023-06-10T12:40:50;25.72;48.62
74946;HTU21D;63509;45.250;38.102;2023-06-10T12:43:20;25.71;48.66
74946;HTU21D;63509;45.250;38.102;2023-06-10T12:45:47;25.68;48.90
74946;HTU21D;63509;45.250;38.102;2023-06-10T12:48:23;25.64;48.80
74946;HTU21D;63509;45.250;38.102;2023-06-10T12:50:57;25.59;49.01
74946;HTU21D;63509;45.250;38.102;2023-06-10T12:53:25;25.54;49.37
74946;HTU21D;63509;45.250;38.102;2023-06-10T12:55:54;25.45;49.53
74946;HTU21D;63509;45.250;38.102;2023-06-10T12:58:20;25.37;49.65
74946;HTU21D;63509;45.250;38.102;2023-06-10T13:00:47;25.30;49.83
74946;HTU21D;63509;45.250;38.102;2023-06-10T13:03:14;25.19;49.98
74946;HTU21D;63509;45.250;38.102;2023-06-10T13:05:41;25.12;50.14
74946;HTU21D;63509;45.250;38.102;2023-06-10T13:08:08;25.03;50.31
74946;HTU21D;63509;45.250;38.102;2023-06-10T13:10:36;24.95;50.47
74946;HTU21D;63509;45.250;38.102;2023-06-10T13:13:03;24.87;50.63
74946;HTU21D;63509;45.250;38.102;2023-06-10T13:15:32;24.77;50.80
74946;HTU21D;63509;45.250;38.102;2023-06-10T13:18:05;24.65;50.97
74946;HTU21D;63509;45.250;38.102;2023-06-10T13:20:31;24.57;51.18
74946;HTU21D;63509;45.250;38.102;2023-06-10T13:22:58;24.48;51.36
74946;HTU21D;63509;45.250;38.102;2023-06-10T13:25:24;24.40;51.55
74946;HTU21D;63509;45.250;38.102;2023-06-10T13:27:50;24.32;51.71
74946;HTU21D;63509;45.250;38.102;2023-06-10T13:30:17;24.26;51.86
74946;HTU21D;63509;45.250;38.102;2023-06-10T13:32:43;24.20;51.99
74946;HTU21D;63509;45.250;38.102;2023-06-10T13:35:09;24.14;52.13
74946;HTU21D;63509;45.250;38.102;2023-06-10T13:37:35;24.09;52.23
74946;HTU21D;63509;45.250;38.102;2023-06-10T13:40:02;24.03;52.33
74946;HTU21D;63509;45.250;38.102;2023-06-10T13:42:29;23.98;52.43
74946;HTU21D;63509;45.250;38.102;2023-06-10T13:44:55;23.94;52.56
74946;HTU21D;63509;45.250;38.102;2023-06-10T13:47:22;23.92;52.78
74946;HTU21D;63509;45.250;38.102;2023-06-10T13:49:51;23.94;52.76
74946;HTU21D;63509;45.250;38.102;2023-06-10T13:52:17;23.95;53.03
74946;HTU21D;63509;45.250;38.102;2023-06-10T13:54:44;23.95;53.11
74946;HTU21D;63509;45.250;38.102;2023-06-10T13:57:11;23.96;53.20
74946;HTU21D;63509;45.250;38.102;2023-06-10T13:59:50;23.96;52.91
74946;HTU21D;63509;45.250;38.102;2023-06-10T14:06:17;23.92;53.01
74946;HTU21D;63509;45.250;38.102;2023-06-10T14:08:49;23.92;53.37
74946;HTU21D;63509;45.250;38.102;2023-06-10T14:12:14;23.90;53.20
74946;HTU21D;63509;45.250;38.102;2023-06-10T14:17:22;23.83;53.80
74946;HTU21D;63509;45.250;38.102;2023-06-10T14:26:04;23.79;54.42
74946;HTU21D;63509;45.250;38.102;2023-06-10T14:31:16;23.76;54.73
74946;HTU21D;63509;45.250;38.102;2023-06-10T14:33:49;23.76;54.87
74946;HTU21D;63509;45.250;38.102;2023-06-10T14:36:15;23.74;55.06
74946;HTU21D;63509;45.250;38.102;2023-06-10T14:38:44;23.75;55.24
74946;HTU21D;63509;45.250;38.102;2023-06-10T14:41:30;23.74;55.12
74946;HTU21D;63509;45.250;38.102;2023-06-10T14:44:02;23.72;55.36
74946;HTU21D;63509;45.250;38.102;2023-06-10T14:46:32;23.70;55.43
74946;HTU21D;63509;45.250;38.102;2023-06-10T14:48:58;23.65;55.57
74946;HTU21D;63509;45.250;38.102;2023-06-10T14:51:25;23.57;55.75
74946;HTU21D;63509;45.250;38.102;2023-06-10T14:53:56;23.46;55.94
74946;HTU21D;63509;45.250;38.102;2023-06-10T14:56:30;23.32;56.18
74946;HTU21D;63509;45.250;38.102;2023-06-10T14:59:17;23.13;56.36
74946;HTU21D;63509;45.250;38.102;2023-06-10T15:01:43;22.94;56.66
74946;HTU21D;63509;45.250;38.102;2023-06-10T15:18:48;23.14;63.97
74946;HTU21D;63509;45.250;38.102;2023-06-10T15:21:14;22.97;63.53
74946;HTU21D;63509;45.250;38.102;2023-06-10T15:23:41;22.84;63.24
74946;HTU21D;63509;45.250;38.102;2023-06-10T15:26:19;22.70;62.97
74946;HTU21D;63509;45.250;38.102;2023-06-10T15:28:55;22.63;62.75
74946;HTU21D;63509;45.250;38.102;2023-06-10T15:31:33;22.56;62.63
74946;HTU21D;63509;45.250;38.102;2023-06-10T15:34:05;22.57;62.50
74946;HTU21D;63509;45.250;38.102;2023-06-10T15:36:43;22.55;62.41
74946;HTU21D;63509;45.250;38.102;2023-06-10T15:39:16;22.56;62.11
74946;HTU21D;63509;45.250;38.102;2023-06-10T15:41:54;22.55;62.15
74946;HTU21D;63509;45.250;38.102;2023-06-10T15:44:26;22.53;62.06
74946;HTU21D;63509;45.250;38.102;2023-06-10T15:47:12;22.52;61.97
74946;HTU21D;63509;45.250;38.102;2023-06-10T15:49:51;22.50;61.73
74946;HTU21D;63509;45.250;38.102;2023-06-10T15:55:23;22.42;61.80
74946;HTU21D;63509;45.250;38.102;2023-06-10T15:58:04;22.41;61.66
74946;HTU21D;63509;45.250;38.102;2023-06-10T16:00:34;22.40;61.77
74946;HTU21D;63509;45.250;38.102;2023-06-10T16:03:11;22.39;61.80
74946;HTU21D;63509;45.250;38.102;2023-06-10T16:05:37;22.38;61.80
74946;HTU21D;63509;45.250;38.102;2023-06-10T16:08:04;22.36;61.86
74946;HTU21D;63509;45.250;38.102;2023-06-10T16:10:30;22.34;61.92
74946;HTU21D;63509;45.250;38.102;2023-06-10T16:12:56;22.33;61.94
74946;HTU21D;63509;45.250;38.102;2023-06-10T16:15:22;22.32;61.99